Time;durP1;ratioP1;P1;durP2;ratioP2;P2;SDS_P1;SDS_P2;PMS_P1;PMS_P2;Temp;Humidity;BMP_temperature;BMP_pressure;BME280_temperature;BME280_humidity;BME280_pressure;Samples;Min_cycle;Max_cycle;Signal;HPM_P1;HPM_P2
2022/08/16 00:00:43;;;;;;;4.57;3.13;;;;;;;;;;10349350;28;20493;-70
2022/08/16 00:05:43;;;;;;;;;;;;;;;;;;10351231;28;20399;-70
2022/08/16 00:10:43;;;;;;;4.60;3.65;;;;;;;;;;10353723;28;20016;-71
2022/08/16 00:15:46;;;;;;;4.43;4.03;;;;;;;;;;10358859;28;20049;-71
2022/08/16 00:20:46;;;;;;;4.65;3.63;;;;;;;;;;10355944;28;20281;-71
2022/08/16 00:25:47;;;;;;;4.55;3.97;;;;;;;;;;10354702;28;20349;-70
2022/08/16 00:30:47;;;;;;;5.60;3.83;;;;;;;;;;10358140;28;20050;-71
2022/08/16 00:35:47;;;;;;;4.65;4.13;;;;;;;;;;10374928;28;20369;-72
2022/08/16 00:40:50;;;;;;;6.25;4.60;;;;;;;;;;10361529;28;20053;-69
2022/08/16 00:45:50;;;;;;;7.33;4.33;;;;;;;;;;10334528;28;20050;-70
2022/08/16 00:50:50;;;;;;;7.47;4.80;;;;;;;;;;10329353;28;20347;-72
2022/08/16 00:55:53;;;;;;;6.57;4.73;;;;;;;;;;10353575;28;20289;-70
2022/08/16 01:00:54;;;;;;;7.03;4.60;;;;;;;;;;10367787;28;20275;-71
2022/08/16 01:05:55;;;;;;;6.47;5.10;;;;;;;;;;10361884;28;20052;-70
2022/08/16 01:10:56;;;;;;;6.45;5.15;;;;;;;;;;10360540;28;20417;-70
2022/08/16 01:16:02;;;;;;;6.67;5.67;;;;;;;;;;10356049;28;20061;-70
2022/08/16 01:21:17;;;;;;;6.20;5.60;;;;;;;;;;10357321;28;20291;-71
2022/08/16 01:26:18;;;;;;;7.63;5.75;;;;;;;;;;10351254;28;20038;-71
2022/08/16 01:31:20;;;;;;;9.10;6.50;;;;;;;;;;10355453;28;20564;-70
2022/08/16 01:36:20;;;;;;;6.77;5.17;;;;;;;;;;10347705;28;20096;-71
2022/08/16 01:41:22;;;;;;;7.85;6.45;;;;;;;;;;10356249;28;20113;-71
2022/08/16 01:46:35;;;;;;;7.25;5.90;;;;;;;;;;10360870;28;21260;-70
2022/08/16 01:51:41;;;;;;;6.45;5.85;;;;;;;;;;10344861;28;20050;-70
2022/08/16 01:56:43;;;;;;;7.78;5.72;;;;;;;;;;10345549;28;20046;-71
2022/08/16 02:01:45;;;;;;;7.25;6.03;;;;;;;;;;10353892;28;20070;-71
2022/08/16 02:06:46;;;;;;;7.25;5.55;;;;;;;;;;10355833;28;20378;-72
2022/08/16 02:11:49;;;;;;;8.57;6.78;;;;;;;;;;10348529;28;20145;-71
2022/08/16 02:16:49;;;;;;;;;;;;;;;;;;10355106;28;20129;-69
2022/08/16 02:21:52;;;;;;;8.55;6.22;;;;;;;;;;10345192;28;19918;-70
2022/08/16 02:26:53;;;;;;;9.55;6.00;;;;;;;;;;10355614;28;20048;-71
2022/08/16 02:31:53;;;;;;;6.57;5.88;;;;;;;;;;10342234;28;20046;-73
2022/08/16 02:36:53;;;;;;;5.95;5.35;;;;;;;;;;10357473;28;20533;-72
2022/08/16 02:41:55;;;;;;;7.43;5.53;;;;;;;;;;10338527;28;20406;-72
2022/08/16 02:46:57;;;;;;;10.55;5.72;;;;;;;;;;10338886;28;20044;-71
2022/08/16 02:52:00;;;;;;;;;;;;;;;;;;10341779;28;20256;-70
2022/08/16 02:57:00;;;;;;;6.15;5.15;;;;;;;;;;10331075;28;19921;-71
2022/08/16 03:02:01;;;;;;;7.82;5.97;;;;;;;;;;10357502;28;20192;-70
2022/08/16 03:07:05;;;;;;;6.53;5.90;;;;;;;;;;10330929;28;20170;-71
2022/08/16 03:12:17;;;;;;;7.38;5.82;;;;;;;;;;10357933;28;20068;-71
2022/08/16 03:17:17;;;;;;;6.07;4.80;;;;;;;;;;10356202;28;20525;-71
2022/08/16 03:22:19;;;;;;;5.72;4.90;;;;;;;;;;10337600;28;20129;-69
2022/08/16 03:27:19;;;;;;;6.57;5.18;;;;;;;;;;10336252;28;20042;-71
2022/08/16 03:32:20;;;;;;;5.90;5.30;;;;;;;;;;10336410;28;20042;-70
2022/08/16 03:37:20;;;;;;;5.18;4.50;;;;;;;;;;10353883;28;20156;-70
2022/08/16 03:42:21;;;;;;;6.28;5.05;;;;;;;;;;10347552;28;20042;-70
2022/08/16 03:47:22;;;;;;;6.93;4.55;;;;;;;;;;10352041;28;20038;-70
2022/08/16 03:52:25;;;;;;;5.78;4.65;;;;;;;;;;10321667;28;20068;-70
2022/08/16 03:57:28;;;;;;;6.85;4.93;;;;;;;;;;10331531;28;20042;-70
2022/08/16 04:02:29;;;;;;;6.13;5.47;;;;;;;;;;10356465;28;20612;-73
2022/08/16 04:07:29;;;;;;;5.93;5.32;;;;;;;;;;10355437;28;20037;-71
2022/08/16 04:12:30;;;;;;;7.57;6.10;;;;;;;;;;10349461;28;20050;-70
2022/08/16 04:17:31;;;;;;;7.13;5.55;;;;;;;;;;10313739;28;20488;-71
2022/08/16 04:22:31;;;;;;;8.98;6.00;;;;;;;;;;10349972;28;20045;-71
2022/08/16 04:27:36;;;;;;;7.88;6.28;;;;;;;;;;10330092;28;20049;-71
2022/08/16 04:32:37;;;;;;;8.75;6.53;;;;;;;;;;10344376;28;20409;-71
2022/08/16 04:37:39;;;;;;;;;;;;;;;;;;10339652;28;20057;-70
2022/08/16 04:42:49;;;;;;;7.45;6.18;;;;;;;;;;10352715;28;19937;-71
2022/08/16 04:47:50;;;;;;;8.27;6.57;;;;;;;;;;10343566;28;20038;-69
2022/08/16 04:52:52;;;;;;;9.00;7.10;;;;;;;;;;10342385;28;20057;-70
2022/08/16 04:57:54;;;;;;;8.17;6.67;;;;;;;;;;10357892;28;20037;-71
2022/08/16 05:02:56;;;;;;;7.97;6.93;;;;;;;;;;10356697;28;20875;-70
2022/08/16 05:07:57;;;;;;;8.57;6.50;;;;;;;;;;10343850;28;20050;-68
2022/08/16 05:12:59;;;;;;;6.60;5.63;;;;;;;;;;10326607;28;20053;-67
2022/08/16 05:18:01;;;;;;;7.75;6.53;;;;;;;;;;10355032;28;20050;-68
2022/08/16 05:23:05;;;;;;;10.05;6.57;;;;;;;;;;10321447;28;20121;-69
2022/08/16 05:28:09;;;;;;;7.28;6.38;;;;;;;;;;10348054;28;20628;-68
2022/08/16 05:33:13;;;;;;;7.90;6.47;;;;;;;;;;10355210;28;20054;-69
2022/08/16 05:38:14;;;;;;;8.95;6.35;;;;;;;;;;10352603;28;20537;-68
2022/08/16 05:43:14;;;;;;;7.25;6.38;;;;;;;;;;10358204;28;20397;-70
2022/08/16 05:48:15;;;;;;;8.65;6.45;;;;;;;;;;10325237;28;20049;-71
2022/08/16 05:53:36;;;;;;;6.78;6.03;;;;;;;;;;10335204;28;20140;-70
2022/08/16 05:58:43;;;;;;;7.13;6.00;;;;;;;;;;10351511;28;20052;-70
2022/08/16 06:03:47;;;;;;;9.27;6.38;;;;;;;;;;10342569;28;20050;-71
2022/08/16 06:08:52;;;;;;;7.55;6.63;;;;;;;;;;10361819;28;20048;-69
2022/08/16 06:13:52;;;;;;;7.80;6.30;;;;;;;;;;10345127;28;20050;-70
2022/08/16 06:19:03;;;;;;;8.00;6.50;;;;;;;;;;10354971;28;20725;-69
2022/08/16 06:24:05;;;;;;;10.10;6.85;;;;;;;;;;10357032;28;20556;-70
2022/08/16 06:29:09;;;;;;;9.55;6.80;;;;;;;;;;10338681;28;20098;-68
2022/08/16 06:34:13;;;;;;;10.40;7.65;;;;;;;;;;10339038;28;20342;-68
2022/08/16 06:39:16;;;;;;;10.13;6.85;;;;;;;;;;10353312;28;20062;-69
2022/08/16 06:44:31;;;;;;;9.82;7.30;;;;;;;;;;10340280;28;20148;-70
2022/08/16 06:49:36;;;;;;;16.15;7.47;;;;;;;;;;10343734;28;20054;-71
2022/08/16 06:54:36;;;;;;;11.00;7.07;;;;;;;;;;10360342;28;20417;-71
2022/08/16 06:59:37;;;;;;;9.40;6.70;;;;;;;;;;10350464;28;20137;-69
2022/08/16 07:04:41;;;;;;;8.40;6.85;;;;;;;;;;10356191;28;20030;-67
2022/08/16 07:09:49;;;;;;;8.43;7.25;;;;;;;;;;10355571;28;20052;-68
2022/08/16 07:14:49;;;;;;;9.75;6.50;;;;;;;;;;10353060;28;20164;-68
2022/08/16 07:19:51;;;;;;;9.70;6.73;;;;;;;;;;10337355;28;20804;-70
2022/08/16 07:24:52;;;;;;;10.15;6.85;;;;;;;;;;10337751;28;20034;-69
2022/08/16 07:29:53;;;;;;;8.75;6.18;;;;;;;;;;10337511;28;20085;-71
2022/08/16 07:34:53;;;;;;;8.10;6.10;;;;;;;;;;10358968;28;20053;-71
2022/08/16 07:39:54;;;;;;;9.77;6.38;;;;;;;;;;10356864;28;20069;-70
2022/08/16 07:44:56;;;;;;;8.27;6.57;;;;;;;;;;10339995;28;20058;-71
2022/08/16 07:49:57;;;;;;;8.27;6.60;;;;;;;;;;10354130;28;20125;-70
2022/08/16 07:54:57;;;;;;;6.88;5.45;;;;;;;;;;10332000;28;20056;-69
2022/08/16 07:59:59;;;;;;;5.88;5.20;;;;;;;;;;10335001;28;20038;-72
2022/08/16 08:05:00;;;;;;;6.97;5.90;;;;;;;;;;10356061;28;20052;-68
2022/08/16 08:10:01;;;;;;;7.28;5.05;;;;;;;;;;10341215;28;20065;-69
2022/08/16 08:15:04;;;;;;;6.55;4.63;;;;;;;;;;10354391;28;20145;-71
2022/08/16 08:20:06;;;;;;;6.30;5.03;;;;;;;;;;10358622;28;20060;-69
2022/08/16 08:25:08;;;;;;;5.72;4.70;;;;;;;;;;10337414;28;20056;-70
2022/08/16 08:30:09;;;;;;;6.55;4.88;;;;;;;;;;10356682;28;20114;-70
2022/08/16 08:35:10;;;;;;;6.32;4.38;;;;;;;;;;10334907;28;20058;-69
2022/08/16 08:40:12;;;;;;;5.97;4.90;;;;;;;;;;10352363;28;20046;-70
2022/08/16 08:45:14;;;;;;;4.53;4.13;;;;;;;;;;10349287;28;20414;-69
2022/08/16 08:50:15;;;;;;;5.53;4.77;;;;;;;;;;10334125;28;20548;-70
2022/08/16 08:55:16;;;;;;;4.63;4.22;;;;;;;;;;10338819;28;20104;-68
2022/08/16 09:00:18;;;;;;;6.93;4.45;;;;;;;;;;10354491;28;20046;-70
2022/08/16 09:05:20;;;;;;;6.65;4.72;;;;;;;;;;10356824;28;20042;-71
2022/08/16 09:10:22;;;;;;;6.25;5.50;;;;;;;;;;10337814;28;20046;-68
2022/08/16 09:15:24;;;;;;;5.47;4.70;;;;;;;;;;10357339;28;20054;-70
2022/08/16 09:20:26;;;;;;;5.03;4.47;;;;;;;;;;10332899;28;20034;-70
2022/08/16 09:25:27;;;;;;;5.20;4.70;;;;;;;;;;10333693;28;20765;-71
2022/08/16 09:30:30;;;;;;;5.00;4.50;;;;;;;;;;10321299;28;20045;-69
2022/08/16 09:35:30;;;;;;;5.53;4.90;;;;;;;;;;10346879;28;20114;-70
2022/08/16 09:40:31;;;;;;;5.03;4.63;;;;;;;;;;10352738;28;20162;-69
2022/08/16 09:45:37;;;;;;;7.43;5.18;;;;;;;;;;10346332;28;20342;-69
2022/08/16 09:50:38;;;;;;;5.20;4.70;;;;;;;;;;10361576;28;20050;-69
2022/08/16 09:55:39;;;;;;;5.63;5.13;;;;;;;;;;10349372;28;20053;-68
2022/08/16 10:00:40;;;;;;;5.28;4.78;;;;;;;;;;10360881;28;20481;-69
2022/08/16 10:05:40;;;;;;;6.05;4.70;;;;;;;;;;10343445;28;20050;-69
2022/08/16 10:10:41;;;;;;;6.13;4.60;;;;;;;;;;10358671;28;20049;-69
2022/08/16 10:15:43;;;;;;;9.18;5.90;;;;;;;;;;10355079;28;20281;-68
2022/08/16 10:20:44;;;;;;;5.85;4.80;;;;;;;;;;10362152;28;20482;-69
2022/08/16 10:25:45;;;;;;;5.43;5.03;;;;;;;;;;10350024;28;20141;-70
2022/08/16 10:30:46;;;;;;;6.00;4.77;;;;;;;;;;10345970;28;20064;-70
2022/08/16 10:35:46;;;;;;;5.82;4.90;;;;;;;;;;10361309;28;20089;-72
2022/08/16 10:40:47;;;;;;;5.20;4.68;;;;;;;;;;10359721;28;20050;-70
2022/08/16 10:45:47;;;;;;;5.72;4.78;;;;;;;;;;10361357;28;20580;-69
2022/08/16 10:50:47;;;;;;;5.05;4.22;;;;;;;;;;10336566;28;20397;-68
2022/08/16 10:55:48;;;;;;;5.38;4.63;;;;;;;;;;10342462;28;20053;-69
2022/08/16 11:00:48;;;;;;;5.40;4.90;;;;;;;;;;10352279;28;20477;-68
2022/08/16 11:05:49;;;;;;;8.05;4.78;;;;;;;;;;10357354;28;20039;-69
2022/08/16 11:10:49;;;;;;;4.97;4.47;;;;;;;;;;10348957;28;20077;-68
2022/08/16 11:15:50;;;;;;;4.87;4.47;;;;;;;;;;10360382;28;20052;-70
2022/08/16 11:20:51;;;;;;;5.80;4.87;;;;;;;;;;10358676;28;20397;-69
2022/08/16 11:25:52;;;;;;;5.10;4.60;;;;;;;;;;10358393;28;20061;-72
2022/08/16 11:30:52;;;;;;;4.97;4.10;;;;;;;;;;10359019;28;20073;-69
2022/08/16 11:35:53;;;;;;;5.27;4.77;;;;;;;;;;10353214;28;20054;-69
2022/08/16 11:40:57;;;;;;;5.10;4.60;;;;;;;;;;10355332;28;20492;-70
2022/08/16 11:45:58;;;;;;;5.30;4.70;;;;;;;;;;10338282;28;20065;-70
2022/08/16 11:50:59;;;;;;;5.38;4.28;;;;;;;;;;10355163;28;20050;-71
2022/08/16 11:56:00;;;;;;;6.07;4.40;;;;;;;;;;10350885;28;20054;-72
2022/08/16 12:01:00;;;;;;;7.77;4.70;;;;;;;;;;10349466;28;20065;-71
2022/08/16 12:06:12;;;;;;;4.80;4.25;;;;;;;;;;10359793;28;20493;-68
2022/08/16 12:11:12;;;;;;;4.72;4.28;;;;;;;;;;10358405;28;20048;-74
2022/08/16 12:16:13;;;;;;;5.13;4.57;;;;;;;;;;10357280;28;20053;-70
2022/08/16 12:21:14;;;;;;;4.60;4.20;;;;;;;;;;10353278;28;20129;-71
2022/08/16 12:26:16;;;;;;;4.77;4.20;;;;;;;;;;10336704;28;20053;-69
2022/08/16 12:31:16;;;;;;;4.07;3.67;;;;;;;;;;10350600;28;20065;-71
2022/08/16 12:36:16;;;;;;;4.07;3.67;;;;;;;;;;10354633;28;20467;-72
2022/08/16 12:41:17;;;;;;;5.30;4.10;;;;;;;;;;10354484;28;20133;-70
2022/08/16 12:46:17;;;;;;;5.57;4.20;;;;;;;;;;10359337;28;20137;-67
2022/08/16 12:51:20;;;;;;;4.40;4.00;;;;;;;;;;10365203;28;20050;-72
2022/08/16 12:56:24;;;;;;;4.32;3.80;;;;;;;;;;10365832;28;20046;-70
2022/08/16 13:01:27;;;;;;;4.07;3.78;;;;;;;;;;10361079;28;20045;-71
2022/08/16 13:06:28;;;;;;;4.72;4.28;;;;;;;;;;10362357;28;20045;-71
2022/08/16 13:11:32;;;;;;;5.17;4.10;;;;;;;;;;10360192;28;20528;-71
2022/08/16 13:16:32;;;;;;;4.65;3.90;;;;;;;;;;10356617;28;20050;-72
2022/08/16 13:21:33;;;;;;;3.70;3.40;;;;;;;;;;10356103;28;20085;-71
2022/08/16 13:26:33;;;;;;;4.13;3.77;;;;;;;;;;10362882;28;20045;-72
2022/08/16 13:31:33;;;;;;;3.73;3.33;;;;;;;;;;10357381;28;20053;-71
2022/08/16 13:36:34;;;;;;;4.00;3.13;;;;;;;;;;10342377;28;20049;-72
2022/08/16 13:41:35;;;;;;;3.67;3.30;;;;;;;;;;10363246;28;20071;-72
2022/08/16 13:46:35;;;;;;;3.88;3.40;;;;;;;;;;10361951;28;20034;-70
2022/08/16 13:51:36;;;;;;;4.43;3.27;;;;;;;;;;10348626;28;20050;-71
2022/08/16 13:56:38;;;;;;;3.80;3.45;;;;;;;;;;10359021;28;20088;-71
2022/08/16 14:01:38;;;;;;;3.95;3.22;;;;;;;;;;10360869;28;20132;-71
2022/08/16 14:06:38;;;;;;;3.57;3.27;;;;;;;;;;10364151;28;20096;-72
2022/08/16 14:11:39;;;;;;;3.33;3.03;;;;;;;;;;10352803;28;20065;-72
2022/08/16 14:16:39;;;;;;;8.20;3.80;;;;;;;;;;10365770;28;20049;-72
2022/08/16 14:21:40;;;;;;;3.40;3.17;;;;;;;;;;10359820;28;20038;-71
2022/08/16 14:26:41;;;;;;;3.93;3.40;;;;;;;;;;10346318;28;20458;-71
2022/08/16 14:31:42;;;;;;;3.50;3.00;;;;;;;;;;10349517;28;20042;-72
2022/08/16 14:36:42;;;;;;;3.67;3.30;;;;;;;;;;10355356;28;20057;-73
2022/08/16 14:41:43;;;;;;;3.50;3.17;;;;;;;;;;10356684;28;20464;-72
2022/08/16 14:46:44;;;;;;;3.88;3.30;;;;;;;;;;10358637;28;20089;-72
2022/08/16 14:51:45;;;;;;;3.30;2.90;;;;;;;;;;10341513;28;20397;-72
2022/08/16 14:56:48;;;;;;;3.30;3.00;;;;;;;;;;10365360;28;20058;-71
2022/08/16 15:01:51;;;;;;;4.28;3.40;;;;;;;;;;10362886;28;20497;-73
2022/08/16 15:06:51;;;;;;;3.25;2.97;;;;;;;;;;10359999;28;20038;-72
2022/08/16 15:11:52;;;;;;;5.57;3.70;;;;;;;;;;10362133;28;20050;-72
2022/08/16 15:16:53;;;;;;;4.18;3.10;;;;;;;;;;10359951;28;20410;-73
2022/08/16 15:21:53;;;;;;;3.50;3.20;;;;;;;;;;10358874;28;20398;-71
2022/08/16 15:26:53;;;;;;;4.97;2.90;;;;;;;;;;10358044;28;20049;-71
2022/08/16 15:31:54;;;;;;;15.67;14.17;;;;;;;;;;10349590;28;20052;-68
2022/08/16 15:36:54;;;;;;;4.27;3.87;;;;;;;;;;10356241;28;20077;-69
2022/08/16 15:41:57;;;;;;;3.40;3.10;;;;;;;;;;10359149;28;20054;-68
2022/08/16 15:46:57;;;;;;;3.20;2.90;;;;;;;;;;10341432;28;20077;-70
2022/08/16 15:51:58;;;;;;;3.17;2.87;;;;;;;;;;10336851;28;20128;-69
2022/08/16 15:56:59;;;;;;;4.60;3.00;;;;;;;;;;10356256;28;20045;-69
2022/08/16 16:02:00;;;;;;;4.07;3.00;;;;;;;;;;10353240;28;20045;-71
2022/08/16 16:07:02;;;;;;;3.30;3.00;;;;;;;;;;10357652;28;20045;-69
2022/08/16 16:12:03;;;;;;;3.72;3.17;;;;;;;;;;10349983;28;20053;-70
2022/08/16 16:17:05;;;;;;;6.60;4.18;;;;;;;;;;10350176;28;20056;-69
2022/08/16 16:22:05;;;;;;;6.47;3.78;;;;;;;;;;10356927;28;20042;-70
2022/08/16 16:27:05;;;;;;;4.17;3.10;;;;;;;;;;10355320;28;20263;-68
2022/08/16 16:32:06;;;;;;;4.77;2.97;;;;;;;;;;10355210;28;20046;-68
2022/08/16 16:37:06;;;;;;;2.90;2.60;;;;;;;;;;10349137;28;20709;-68
2022/08/16 16:42:07;;;;;;;3.77;3.20;;;;;;;;;;10350880;28;20069;-67
2022/08/16 16:47:07;;;;;;;4.23;3.30;;;;;;;;;;10344442;28;20065;-67
2022/08/16 16:52:10;;;;;;;5.00;3.60;;;;;;;;;;10332757;28;20359;-68
2022/08/16 16:58:54;;;;;;;3.90;3.30;;;;;;;;;;10327902;28;20137;-69
2022/08/16 17:02:31;;;;;;;3.88;3.40;;;;;;;;;;10339442;28;20046;-69
2022/08/16 17:07:31;;;;;;;3.50;3.20;;;;;;;;;;10355127;28;20042;-68
2022/08/16 17:12:32;;;;;;;4.27;3.57;;;;;;;;;;10352281;28;20034;-67
2022/08/16 17:17:32;;;;;;;4.77;3.33;;;;;;;;;;10354956;28;20061;-70
2022/08/16 17:22:33;;;;;;;4.20;2.90;;;;;;;;;;10349353;28;20765;-70
2022/08/16 17:27:34;;;;;;;4.00;3.37;;;;;;;;;;10352722;28;20080;-71
2022/08/16 17:32:35;;;;;;;3.43;3.13;;;;;;;;;;10346497;28;20069;-70
2022/08/16 17:37:37;;;;;;;3.73;3.33;;;;;;;;;;10354257;28;20727;-71
2022/08/16 17:42:38;;;;;;;7.80;6.93;;;;;;;;;;10347102;28;20128;-73
2022/08/16 17:47:38;;;;;;;8.20;7.33;;;;;;;;;;10356129;28;20078;-70
2022/08/16 17:52:38;;;;;;;4.07;3.70;;;;;;;;;;10360481;28;20061;-74
2022/08/16 17:57:39;;;;;;;3.70;3.20;;;;;;;;;;10358251;28;20054;-70
2022/08/16 18:02:40;;;;;;;3.67;3.37;;;;;;;;;;10358127;28;20041;-71
2022/08/16 18:07:40;;;;;;;4.87;4.03;;;;;;;;;;10354702;28;20046;-71
2022/08/16 18:12:41;;;;;;;5.90;4.50;;;;;;;;;;10358515;28;20066;-71
2022/08/16 18:17:42;;;;;;;4.27;3.97;;;;;;;;;;10351011;28;20057;-72
2022/08/16 18:22:43;;;;;;;13.10;11.73;;;;;;;;;;10355040;28;20398;-70
2022/08/16 18:27:43;;;;;;;9.93;8.93;;;;;;;;;;10351989;28;20049;-70
2022/08/16 18:32:47;;;;;;;5.37;4.30;;;;;;;;;;10356166;28;20057;-70
2022/08/16 18:37:47;;;;;;;4.57;3.55;;;;;;;;;;10355933;28;20041;-70
2022/08/16 18:42:51;;;;;;;6.45;5.85;;;;;;;;;;10336304;28;20246;-71
2022/08/16 18:47:52;;;;;;;4.63;4.22;;;;;;;;;;10357733;28;20057;-71
2022/08/16 18:52:54;;;;;;;4.40;4.10;;;;;;;;;;10349360;28;20050;-72
2022/08/16 18:57:54;;;;;;;5.35;3.83;;;;;;;;;;10353434;28;20053;-72
2022/08/16 19:03:05;;;;;;;4.50;4.10;;;;;;;;;;10329572;28;20042;-72
2022/08/16 19:08:06;;;;;;;4.32;3.88;;;;;;;;;;10349058;28;20109;-73
2022/08/16 19:13:08;;;;;;;6.38;4.10;;;;;;;;;;10345308;28;20042;-75
2022/08/16 19:18:09;;;;;;;7.38;6.68;;;;;;;;;;10355563;28;20507;-71
2022/08/16 19:23:13;;;;;;;6.03;5.50;;;;;;;;;;10355654;28;20048;-72
2022/08/16 19:28:14;;;;;;;6.53;4.80;;;;;;;;;;10354121;28;20132;-72
2022/08/16 19:33:15;;;;;;;5.30;4.80;;;;;;;;;;10334824;28;20866;-74
2022/08/16 19:38:15;;;;;;;4.23;3.83;;;;;;;;;;10348705;28;20164;-72
2022/08/16 19:43:16;;;;;;;4.53;3.90;;;;;;;;;;10353887;28;20292;-72
2022/08/16 19:48:16;;;;;;;6.13;4.43;;;;;;;;;;10330404;28;20454;-71
2022/08/16 19:53:17;;;;;;;5.10;4.60;;;;;;;;;;10353673;28;20058;-73
2022/08/16 19:58:17;;;;;;;6.75;4.40;;;;;;;;;;10344407;28;20034;-70
2022/08/16 20:03:20;;;;;;;4.95;4.50;;;;;;;;;;10350772;28;20490;-71
2022/08/16 20:08:21;;;;;;;4.55;4.00;;;;;;;;;;10357653;28;20044;-71
2022/08/16 20:13:23;;;;;;;4.75;4.35;;;;;;;;;;10355310;28;20512;-76
2022/08/16 20:18:23;;;;;;;4.95;4.57;;;;;;;;;;10356965;28;20056;-72
2022/08/16 20:23:23;;;;;;;7.40;4.73;;;;;;;;;;10349219;28;20052;-72
2022/08/16 20:28:24;;;;;;;6.03;5.43;;;;;;;;;;10354004;28;20045;-72
2022/08/16 20:33:24;;;;;;;4.83;4.40;;;;;;;;;;10346591;28;20281;-72
2022/08/16 20:38:24;;;;;;;5.37;4.67;;;;;;;;;;10355113;28;20200;-74
2022/08/16 20:43:25;;;;;;;4.85;4.28;;;;;;;;;;10346125;28;20114;-79
2022/08/16 20:48:25;;;;;;;5.50;4.33;;;;;;;;;;10360401;28;20042;-75
2022/08/16 20:53:25;;;;;;;5.63;4.80;;;;;;;;;;10360504;28;20280;-73
2022/08/16 20:58:26;;;;;;;4.80;4.40;;;;;;;;;;10360996;28;20041;-72
2022/08/16 21:03:26;;;;;;;5.37;4.77;;;;;;;;;;10355269;28;20058;-72
2022/08/16 21:08:28;;;;;;;5.88;5.28;;;;;;;;;;10351303;28;20595;-72
2022/08/16 21:13:31;;;;;;;6.90;5.57;;;;;;;;;;10361152;28;20362;-72
2022/08/16 21:18:31;;;;;;;5.88;5.30;;;;;;;;;;10356589;28;20140;-72
2022/08/16 21:23:32;;;;;;;5.97;5.00;;;;;;;;;;10360476;28;20551;-73
2022/08/16 21:28:32;;;;;;;7.67;6.20;;;;;;;;;;10360053;28;20289;-72
2022/08/16 21:33:33;;;;;;;7.93;6.38;;;;;;;;;;10362258;28;20054;-71
2022/08/16 21:38:33;;;;;;;7.95;5.90;;;;;;;;;;10360707;28;20050;-72
2022/08/16 21:43:34;;;;;;;8.13;6.07;;;;;;;;;;10359387;28;20413;-73
2022/08/16 21:48:35;;;;;;;7.37;6.57;;;;;;;;;;10360236;28;20144;-72
2022/08/16 21:53:36;;;;;;;7.33;6.37;;;;;;;;;;10355405;28;20053;-71
2022/08/16 21:58:36;;;;;;;8.10;6.85;;;;;;;;;;10359263;28;20515;-71
2022/08/16 22:03:36;;;;;;;6.55;5.90;;;;;;;;;;10355002;28;20046;-72
2022/08/16 22:08:37;;;;;;;7.03;6.40;;;;;;;;;;10357892;28;20427;-72
2022/08/16 22:13:37;;;;;;;7.97;6.47;;;;;;;;;;10354312;28;20060;-72
2022/08/16 22:18:37;;;;;;;8.17;6.77;;;;;;;;;;10359315;28;20739;-74
2022/08/16 22:23:38;;;;;;;8.80;6.40;;;;;;;;;;10359249;28;20375;-73
2022/08/16 22:28:38;;;;;;;8.77;7.27;;;;;;;;;;10356730;28;20054;-74
2022/08/16 22:33:39;;;;;;;8.17;7.17;;;;;;;;;;10358116;28;20490;-74
2022/08/16 22:38:39;;;;;;;10.13;7.80;;;;;;;;;;10347889;28;20304;-71
2022/08/16 22:43:40;;;;;;;8.07;7.37;;;;;;;;;;10354548;28;20041;-71
2022/08/16 22:48:41;;;;;;;8.77;7.50;;;;;;;;;;10345722;28;20292;-71
2022/08/16 22:53:41;;;;;;;8.10;7.32;;;;;;;;;;10355223;28;20277;-71
2022/08/16 22:58:42;;;;;;;7.50;6.63;;;;;;;;;;10355694;28;20049;-71
2022/08/16 23:03:42;;;;;;;8.13;7.32;;;;;;;;;;10357933;28;20486;-72
2022/08/16 23:08:43;;;;;;;7.68;6.97;;;;;;;;;;10354588;28;20625;-72
2022/08/16 23:13:43;;;;;;;7.30;6.63;;;;;;;;;;10353552;28;20401;-73
2022/08/16 23:18:43;;;;;;;8.17;7.10;;;;;;;;;;10353993;28;20077;-71
2022/08/16 23:23:47;;;;;;;9.33;7.40;;;;;;;;;;10350628;28;20065;-72
2022/08/16 23:28:48;;;;;;;11.15;7.22;;;;;;;;;;10354125;28;20129;-70
2022/08/16 23:33:48;;;;;;;8.60;6.93;;;;;;;;;;10347696;28;20537;-71
2022/08/16 23:38:49;;;;;;;7.70;6.90;;;;;;;;;;10352503;28;20134;-72
2022/08/16 23:43:49;;;;;;;8.17;7.33;;;;;;;;;;10357023;28;20097;-71
2022/08/16 23:48:50;;;;;;;8.18;6.97;;;;;;;;;;10337913;28;20038;-70
2022/08/16 23:53:50;;;;;;;9.63;7.68;;;;;;;;;;10354300;28;20050;-71
2022/08/16 23:58:51;;;;;;;8.00;7.10;;;;;;;;;;10353227;28;20046;-70
